Time;durP1;ratioP1;P1;durP2;ratioP2;P2;SDS_P1;SDS_P2;PMS_P1;PMS_P2;Temp;Humidity;BMP_temperature;BMP_pressure;BME280_temperature;BME280_humidity;BME280_pressure;Samples;Min_cycle;Max_cycle;Signal;HPM_P1;HPM_P2
2022/12/06 00:01:44;;;;;;;0.40;0.40;;;;;;;;;;4128580;28;20116;-42
2022/12/06 00:03:47;;;;;;;0.57;0.55;;;;;;;;;;4146066;28;20069;-42
2022/12/06 00:05:48;;;;;;;0.68;0.50;;;;;;;;;;4128582;28;20063;-42
2022/12/06 00:07:50;;;;;;;0.45;0.45;;;;;;;;;;4137933;28;20054;-42
2022/12/06 00:09:51;;;;;;;1.00;0.60;;;;;;;;;;4146312;28;20054;-42
2022/12/06 00:11:53;;;;;;;0.95;0.57;;;;;;;;;;4160807;28;20092;-42
2022/12/06 00:13:56;;;;;;;0.60;0.52;;;;;;;;;;4138334;28;20050;-42
2022/12/06 00:16:05;;;;;;;0.43;0.40;;;;;;;;;;4145370;28;20058;-41
2022/12/06 00:18:07;;;;;;;;;;;;;;;;;;4121107;28;20498;-44
2022/12/06 00:20:09;;;;;;;0.82;0.70;;;;;;;;;;4146315;28;19921;-42
2022/12/06 00:22:10;;;;;;;0.85;0.50;;;;;;;;;;4128601;28;20193;-42
2022/12/06 00:24:14;;;;;;;0.63;0.50;;;;;;;;;;4145065;28;20097;-43
2022/12/06 00:26:16;;;;;;;1.08;0.60;;;;;;;;;;4160804;28;20058;-44
2022/12/06 00:28:17;;;;;;;0.60;0.60;;;;;;;;;;4145803;28;20058;-42
2022/12/06 00:30:19;;;;;;;1.05;0.73;;;;;;;;;;4140457;28;20127;-42
2022/12/06 00:32:20;;;;;;;1.00;0.50;;;;;;;;;;4140759;28;20057;-43
2022/12/06 00:34:21;;;;;;;0.65;0.57;;;;;;;;;;4131520;28;20097;-42
2022/12/06 00:36:25;;;;;;;0.70;0.50;;;;;;;;;;4148715;28;20046;-43
2022/12/06 00:38:28;;;;;;;0.63;0.50;;;;;;;;;;4148240;28;20468;-42
2022/12/06 00:40:29;;;;;;;0.65;0.63;;;;;;;;;;4147305;28;20054;-42
2022/12/06 00:42:31;;;;;;;0.70;0.50;;;;;;;;;;4148688;28;20132;-44
2022/12/06 00:44:32;;;;;;;0.50;0.40;;;;;;;;;;4148939;28;20054;-42
2022/12/06 00:46:34;;;;;;;1.23;0.68;;;;;;;;;;4147609;28;20414;-42
2022/12/06 00:48:35;;;;;;;0.93;0.50;;;;;;;;;;4122998;28;20058;-41
2022/12/06 00:50:37;;;;;;;0.85;0.35;;;;;;;;;;4148403;28;20046;-42
2022/12/06 00:52:38;;;;;;;1.00;0.47;;;;;;;;;;4148086;28;20054;-43
2022/12/06 00:54:40;;;;;;;0.40;0.40;;;;;;;;;;4148521;28;20061;-42
2022/12/06 00:56:41;;;;;;;0.88;0.60;;;;;;;;;;4148668;28;20120;-43
2022/12/06 00:58:43;;;;;;;0.40;0.40;;;;;;;;;;4148177;28;20358;-42
2022/12/06 01:00:45;;;;;;;0.82;0.50;;;;;;;;;;4130802;28;20062;-43
2022/12/06 01:02:46;;;;;;;0.70;0.60;;;;;;;;;;4140600;28;20050;-42
2022/12/06 01:04:47;;;;;;;0.57;0.45;;;;;;;;;;4162971;28;20405;-42
2022/12/06 01:06:48;;;;;;;0.40;0.40;;;;;;;;;;4148250;28;20104;-42
2022/12/06 01:08:50;;;;;;;0.63;0.50;;;;;;;;;;4144434;28;20058;-42
2022/12/06 01:10:53;;;;;;;0.80;0.47;;;;;;;;;;4136679;28;20136;-43
2022/12/06 01:12:54;;;;;;;0.40;0.32;;;;;;;;;;4145327;28;20061;-43
2022/12/06 01:14:55;;;;;;;0.60;0.50;;;;;;;;;;4143785;28;20058;-43
2022/12/06 01:16:56;;;;;;;0.73;0.60;;;;;;;;;;4147681;28;20053;-42
2022/12/06 01:18:59;;;;;;;0.63;0.45;;;;;;;;;;4163419;28;20057;-44
2022/12/06 01:21:12;;;;;;;0.80;0.45;;;;;;;;;;4139955;28;20053;-42
2022/12/06 01:23:14;;;;;;;0.47;0.47;;;;;;;;;;4129795;28;20182;-43
2022/12/06 01:25:15;;;;;;;1.10;0.55;;;;;;;;;;4148078;28;20577;-44
2022/12/06 01:27:17;;;;;;;0.45;0.45;;;;;;;;;;4147997;28;20080;-42
2022/12/06 01:29:18;;;;;;;0.60;0.50;;;;;;;;;;4139187;28;20059;-43
2022/12/06 01:31:20;;;;;;;0.68;0.40;;;;;;;;;;4154622;28;20053;-42
2022/12/06 01:33:21;;;;;;;2.05;0.60;;;;;;;;;;4147677;28;20524;-45
2022/12/06 01:35:23;;;;;;;0.65;0.50;;;;;;;;;;4142086;28;20050;-44
2022/12/06 01:37:24;;;;;;;0.65;0.50;;;;;;;;;;4144823;28;20054;-43
2022/12/06 01:39:26;;;;;;;1.05;0.57;;;;;;;;;;4147731;28;20465;-44
2022/12/06 01:41:27;;;;;;;0.38;0.38;;;;;;;;;;4147307;28;20061;-42
2022/12/06 01:43:37;;;;;;;0.68;0.60;;;;;;;;;;4129855;28;20054;-42
2022/12/06 01:45:39;;;;;;;0.40;0.40;;;;;;;;;;4147837;28;20053;-42
2022/12/06 01:47:43;;;;;;;0.60;0.45;;;;;;;;;;4162677;28;20430;-45
2022/12/06 01:49:50;;;;;;;1.20;0.65;;;;;;;;;;4147312;28;20057;-42
2022/12/06 01:51:56;;;;;;;0.75;0.45;;;;;;;;;;4147850;28;20054;-42
2022/12/06 01:53:59;;;;;;;0.60;0.60;;;;;;;;;;4147035;28;20058;-44
2022/12/06 01:56:00;;;;;;;0.75;0.55;;;;;;;;;;4162294;28;20175;-43
2022/12/06 01:58:10;;;;;;;0.55;0.52;;;;;;;;;;4147489;28;20046;-43
2022/12/06 02:00:11;;;;;;;0.52;0.40;;;;;;;;;;4130140;28;20506;-42
2022/12/06 02:02:13;;;;;;;0.60;0.47;;;;;;;;;;4147306;28;20057;-42
2022/12/06 02:04:16;;;;;;;0.75;0.60;;;;;;;;;;4147059;28;20057;-45
2022/12/06 02:06:17;;;;;;;1.23;0.40;;;;;;;;;;4130234;28;20058;-42
2022/12/06 02:08:19;;;;;;;0.45;0.45;;;;;;;;;;4146905;28;20050;-42
2022/12/06 02:10:21;;;;;;;0.90;0.57;;;;;;;;;;4162326;28;20053;-44
2022/12/06 02:12:22;;;;;;;0.80;0.57;;;;;;;;;;4147223;28;20497;-45
2022/12/06 02:14:28;;;;;;;0.40;0.32;;;;;;;;;;4147103;28;20057;-44
2022/12/06 02:16:38;;;;;;;0.50;0.40;;;;;;;;;;4147182;28;20370;-42
2022/12/06 02:18:46;;;;;;;0.43;0.40;;;;;;;;;;4129314;28;20149;-43
2022/12/06 02:20:55;;;;;;;0.30;0.30;;;;;;;;;;4147253;28;20108;-42
2022/12/06 02:23:28;;;;;;;0.57;0.40;;;;;;;;;;4129260;28;20058;-42
2022/12/06 02:26:16;;;;;;;0.70;0.40;;;;;;;;;;4129683;28;20050;-43
2022/12/06 02:28:42;;;;;;;0.52;0.40;;;;;;;;;;4111529;28;20105;-43
2022/12/06 02:30:48;;;;;;;0.95;0.60;;;;;;;;;;4145939;28;20054;-42
2022/12/06 02:32:56;;;;;;;0.32;0.32;;;;;;;;;;4156418;28;20049;-42
2022/12/06 02:35:19;;;;;;;0.40;0.30;;;;;;;;;;4132591;28;20061;-43
2022/12/06 02:37:26;;;;;;;0.50;0.43;;;;;;;;;;4139150;28;20050;-43
2022/12/06 02:39:34;;;;;;;1.40;0.47;;;;;;;;;;4124127;28;20058;-44
2022/12/06 02:41:41;;;;;;;0.40;0.40;;;;;;;;;;4128450;28;20058;-43
2022/12/06 02:43:50;;;;;;;0.40;0.40;;;;;;;;;;4129712;28;20104;-42
2022/12/06 02:45:53;;;;;;;;;;;;;;;;;;4120580;28;20485;-46
2022/12/06 02:47:55;;;;;;;0.73;0.52;;;;;;;;;;4145471;28;19928;-43
2022/12/06 02:49:58;;;;;;;0.90;0.63;;;;;;;;;;4144883;28;20085;-42
2022/12/06 02:52:00;;;;;;;0.45;0.40;;;;;;;;;;4123643;28;20077;-41
2022/12/06 02:54:04;;;;;;;0.45;0.43;;;;;;;;;;4123637;28;20522;-42
2022/12/06 02:56:06;;;;;;;0.60;0.47;;;;;;;;;;4145482;28;20370;-45
2022/12/06 02:58:07;;;;;;;0.63;0.35;;;;;;;;;;4129202;28;20308;-44
2022/12/06 03:00:30;;;;;;;0.52;0.52;;;;;;;;;;4129384;28;20091;-43
2022/12/06 03:02:33;;;;;;;0.50;0.47;;;;;;;;;;4145307;28;20057;-41
2022/12/06 03:05:02;;;;;;;0.40;0.40;;;;;;;;;;4134628;28;20053;-43
2022/12/06 03:07:12;;;;;;;0.65;0.63;;;;;;;;;;4146886;28;20061;-42
2022/12/06 03:09:35;;;;;;;0.70;0.40;;;;;;;;;;4127791;28;20097;-42
2022/12/06 03:12:10;;;;;;;0.30;0.30;;;;;;;;;;4129113;28;20066;-43
2022/12/06 03:14:17;;;;;;;0.70;0.43;;;;;;;;;;4112812;28;20487;-44
2022/12/06 03:16:47;;;;;;;0.70;0.40;;;;;;;;;;4130331;28;20058;-42
2022/12/06 03:19:01;;;;;;;0.43;0.43;;;;;;;;;;4107944;28;20055;-42
2022/12/06 03:21:20;;;;;;;0.93;0.47;;;;;;;;;;4118773;28;20058;-42
2022/12/06 03:23:28;;;;;;;1.23;0.60;;;;;;;;;;4112672;28;20063;-43
2022/12/06 03:25:32;;;;;;;0.65;0.40;;;;;;;;;;4129927;28;20050;-43
2022/12/06 03:27:34;;;;;;;0.32;0.30;;;;;;;;;;4112907;28;20097;-43
2022/12/06 03:29:40;;;;;;;0.38;0.38;;;;;;;;;;4112876;28;20158;-42
2022/12/06 03:31:42;;;;;;;0.52;0.30;;;;;;;;;;4112735;28;20085;-42
2022/12/06 03:33:49;;;;;;;0.82;0.50;;;;;;;;;;4110823;28;20051;-42
2022/12/06 03:35:51;;;;;;;0.43;0.40;;;;;;;;;;4136337;28;20426;-43
2022/12/06 03:37:56;;;;;;;0.60;0.45;;;;;;;;;;4108170;28;20126;-43
2022/12/06 03:40:03;;;;;;;0.63;0.40;;;;;;;;;;4096420;28;20055;-44
2022/12/06 03:42:04;;;;;;;0.90;0.60;;;;;;;;;;4134856;28;20058;-42
2022/12/06 03:44:05;;;;;;;0.65;0.32;;;;;;;;;;4136159;28;20426;-42
2022/12/06 03:46:13;;;;;;;0.52;0.40;;;;;;;;;;4118039;28;20184;-42
2022/12/06 03:48:19;;;;;;;0.55;0.40;;;;;;;;;;4096437;29;20063;-44
2022/12/06 03:50:42;;;;;;;0.30;0.30;;;;;;;;;;4145059;28;20053;-44
2022/12/06 03:52:43;;;;;;;0.75;0.40;;;;;;;;;;4112130;28;20558;-45
2022/12/06 03:54:44;;;;;;;0.52;0.32;;;;;;;;;;4112703;28;20058;-42
2022/12/06 03:56:46;;;;;;;0.40;0.40;;;;;;;;;;4128994;28;20058;-42
2022/12/06 03:58:47;;;;;;;0.50;0.40;;;;;;;;;;4112761;28;20054;-43
2022/12/06 04:00:48;;;;;;;0.57;0.45;;;;;;;;;;4130114;28;20105;-43
2022/12/06 04:02:50;;;;;;;0.75;0.60;;;;;;;;;;4111032;28;20055;-43
2022/12/06 04:04:51;;;;;;;0.45;0.30;;;;;;;;;;4118040;28;20336;-42
2022/12/06 04:06:52;;;;;;;0.70;0.30;;;;;;;;;;4125418;28;20055;-43
2022/12/06 04:09:51;;;;;;;1.05;0.35;;;;;;;;;;4127127;28;20062;-43
2022/12/06 04:11:15;;;;;;;0.50;0.43;;;;;;;;;;4117463;28;20066;-42
2022/12/06 04:13:17;;;;;;;0.60;0.40;;;;;;;;;;4138879;28;20061;-42
2022/12/06 04:15:20;;;;;;;0.52;0.43;;;;;;;;;;4148873;28;20489;-42
2022/12/06 04:19:42;;;;;;;0.90;0.40;;;;;;;;;;4143501;28;20090;-42
2022/12/06 04:24:04;;;;;;;0.70;0.50;;;;;;;;;;4148716;28;20050;-43
2022/12/06 04:26:09;;;;;;;0.40;0.40;;;;;;;;;;4149196;28;20382;-42
2022/12/06 04:39:48;;;;;;;;;;;;;;;;;;4135790;28;20085;-44
2022/12/06 04:44:11;;;;;;;0.50;0.38;;;;;;;;;;4138832;28;20089;-43
2022/12/06 04:46:14;;;;;;;0.40;0.40;;;;;;;;;;4133126;28;20080;-43
2022/12/06 04:48:15;;;;;;;0.28;0.28;;;;;;;;;;4115834;28;20054;-43
2022/12/06 04:50:16;;;;;;;0.40;0.30;;;;;;;;;;4133019;28;20109;-43
2022/12/06 04:52:18;;;;;;;0.50;0.40;;;;;;;;;;4141361;28;20053;-42
2022/12/06 04:54:20;;;;;;;0.63;0.43;;;;;;;;;;4148035;28;20068;-43
2022/12/06 04:56:21;;;;;;;0.40;0.40;;;;;;;;;;4144468;28;20055;-42
2022/12/06 04:58:24;;;;;;;0.60;0.40;;;;;;;;;;4139540;28;20050;-43
2022/12/06 05:00:25;;;;;;;0.30;0.30;;;;;;;;;;4148615;28;20053;-42
2022/12/06 05:02:27;;;;;;;0.47;0.47;;;;;;;;;;4147599;28;20061;-43
2022/12/06 05:04:28;;;;;;;1.00;0.45;;;;;;;;;;4135617;28;20104;-43
2022/12/06 05:06:30;;;;;;;0.70;0.50;;;;;;;;;;4142057;28;20104;-42
2022/12/06 05:08:32;;;;;;;0.40;0.40;;;;;;;;;;4141417;28;20431;-44
2022/12/06 05:10:33;;;;;;;0.32;0.32;;;;;;;;;;4148093;28;20120;-42
2022/12/06 05:12:35;;;;;;;0.32;0.30;;;;;;;;;;4130622;28;20058;-42
2022/12/06 05:14:36;;;;;;;0.38;0.30;;;;;;;;;;4131012;28;20391;-42
2022/12/06 05:16:37;;;;;;;0.52;0.40;;;;;;;;;;4147926;28;20065;-44
2022/12/06 05:18:39;;;;;;;0.32;0.30;;;;;;;;;;4135552;28;20128;-42
2022/12/06 05:20:40;;;;;;;0.30;0.30;;;;;;;;;;4145128;28;20532;-41
2022/12/06 05:22:41;;;;;;;0.30;0.20;;;;;;;;;;4136142;28;20054;-43
2022/12/06 05:24:42;;;;;;;0.40;0.40;;;;;;;;;;4140419;28;20050;-42
2022/12/06 05:26:43;;;;;;;0.30;0.30;;;;;;;;;;4142743;28;20461;-43
2022/12/06 05:28:45;;;;;;;0.63;0.30;;;;;;;;;;4134544;28;20494;-43
2022/12/06 05:30:46;;;;;;;0.50;0.40;;;;;;;;;;4148382;28;20057;-43
2022/12/06 05:32:47;;;;;;;0.45;0.30;;;;;;;;;;4147951;28;20108;-42
2022/12/06 05:34:49;;;;;;;0.30;0.30;;;;;;;;;;4137995;28;20054;-44
2022/12/06 05:36:50;;;;;;;0.50;0.50;;;;;;;;;;4135272;28;20045;-42
2022/12/06 05:38:52;;;;;;;0.40;0.40;;;;;;;;;;4147425;28;20054;-42
2022/12/06 05:40:53;;;;;;;0.30;0.30;;;;;;;;;;4138129;28;20553;-42
2022/12/06 05:42:54;;;;;;;0.40;0.30;;;;;;;;;;4144803;28;20057;-42
2022/12/06 05:44:55;;;;;;;0.40;0.40;;;;;;;;;;4127618;28;20054;-42
2022/12/06 05:46:57;;;;;;;0.68;0.38;;;;;;;;;;4137211;28;20061;-42
2022/12/06 05:48:58;;;;;;;0.82;0.35;;;;;;;;;;4139189;28;20050;-43
2022/12/06 05:50:59;;;;;;;1.35;0.32;;;;;;;;;;4158414;28;20064;-42
2022/12/06 05:53:01;;;;;;;0.75;0.57;;;;;;;;;;4147086;28;20157;-44
2022/12/06 05:55:02;;;;;;;1.55;0.65;;;;;;;;;;4147730;28;20100;-42
2022/12/06 05:57:03;;;;;;;0.63;0.30;;;;;;;;;;4147548;28;20057;-42
2022/12/06 05:59:05;;;;;;;0.90;0.40;;;;;;;;;;4147687;28;20443;-42
2022/12/06 06:01:07;;;;;;;0.77;0.43;;;;;;;;;;4137725;28;20085;-42
2022/12/06 06:03:08;;;;;;;1.17;0.40;;;;;;;;;;4127956;28;20510;-42
2022/12/06 06:05:09;;;;;;;0.38;0.38;;;;;;;;;;4135539;28;20062;-42
2022/12/06 06:07:11;;;;;;;0.93;0.35;;;;;;;;;;4145653;28;20190;-42
2022/12/06 06:09:12;;;;;;;1.48;0.50;;;;;;;;;;4132042;28;20054;-42
2022/12/06 06:11:13;;;;;;;0.30;0.30;;;;;;;;;;4146434;28;20568;-42
2022/12/06 06:13:15;;;;;;;1.55;0.70;;;;;;;;;;4145040;28;20177;-42
2022/12/06 06:15:16;;;;;;;0.70;0.45;;;;;;;;;;4142836;28;20057;-42
2022/12/06 06:17:18;;;;;;;0.60;0.40;;;;;;;;;;4133269;28;20675;-42
2022/12/06 06:19:22;;;;;;;0.93;0.40;;;;;;;;;;4145653;28;20058;-42
2022/12/06 06:21:25;;;;;;;0.65;0.40;;;;;;;;;;4143436;28;20053;-42
2022/12/06 06:23:27;;;;;;;1.20;0.43;;;;;;;;;;4142282;28;20061;-42
2022/12/06 06:25:28;;;;;;;1.00;0.52;;;;;;;;;;4144989;28;20062;-43
2022/12/06 06:27:36;;;;;;;0.93;0.60;;;;;;;;;;4139028;28;20047;-42
2022/12/06 06:29:38;;;;;;;0.50;0.50;;;;;;;;;;4136615;28;20053;-42
2022/12/06 06:31:39;;;;;;;1.00;0.60;;;;;;;;;;4143922;28;20456;-43
2022/12/06 06:33:41;;;;;;;1.20;0.40;;;;;;;;;;4127198;28;20058;-42
2022/12/06 06:35:42;;;;;;;0.68;0.50;;;;;;;;;;4144709;28;20367;-44
2022/12/06 06:37:43;;;;;;;0.82;0.40;;;;;;;;;;4122928;28;20050;-42
2022/12/06 06:39:44;;;;;;;0.55;0.55;;;;;;;;;;4135552;28;20050;-44
2022/12/06 06:41:45;;;;;;;0.55;0.55;;;;;;;;;;4140240;28;20613;-42
2022/12/06 06:43:46;;;;;;;1.00;0.52;;;;;;;;;;4138873;28;20058;-43
2022/12/06 06:45:56;;;;;;;1.13;0.60;;;;;;;;;;4140008;28;20066;-42
2022/12/06 06:47:57;;;;;;;0.57;0.28;;;;;;;;;;4126374;28;20077;-42
2022/12/06 06:49:58;;;;;;;1.98;0.60;;;;;;;;;;4137707;28;20058;-45
2022/12/06 06:51:59;;;;;;;0.60;0.50;;;;;;;;;;4119309;28;20074;-42
2022/12/06 06:54:01;;;;;;;1.48;0.45;;;;;;;;;;4144675;28;20081;-42
2022/12/06 06:56:02;;;;;;;1.15;0.57;;;;;;;;;;4124702;28;20062;-43
2022/12/06 06:58:04;;;;;;;0.47;0.32;;;;;;;;;;4104989;28;20498;-42
2022/12/06 07:00:07;;;;;;;0.98;0.50;;;;;;;;;;4131412;28;20058;-43
2022/12/06 07:02:11;;;;;;;1.40;0.57;;;;;;;;;;4142031;28;20053;-42
2022/12/06 07:04:13;;;;;;;1.17;0.60;;;;;;;;;;4134988;28;20420;-43
2022/12/06 07:06:14;;;;;;;1.90;0.68;;;;;;;;;;4126295;28;20729;-43
2022/12/06 07:08:15;;;;;;;0.60;0.50;;;;;;;;;;4131719;28;20157;-44
2022/12/06 07:10:17;;;;;;;0.47;0.45;;;;;;;;;;4121043;28;21023;-42
2022/12/06 07:12:18;;;;;;;0.60;0.52;;;;;;;;;;4121006;28;20345;-42
2022/12/06 07:14:20;;;;;;;1.35;0.60;;;;;;;;;;4132953;28;20097;-42
2022/12/06 07:16:21;;;;;;;2.78;0.60;;;;;;;;;;4127820;28;20510;-42
2022/12/06 07:18:22;;;;;;;0.68;0.50;;;;;;;;;;4121182;28;20513;-43
2022/12/06 07:20:23;;;;;;;1.58;0.50;;;;;;;;;;4123718;28;20100;-43
2022/12/06 07:22:24;;;;;;;1.90;0.50;;;;;;;;;;4120755;28;20057;-43
2022/12/06 07:24:26;;;;;;;0.63;0.35;;;;;;;;;;4118681;28;20109;-42
2022/12/06 07:26:27;;;;;;;0.57;0.47;;;;;;;;;;4119167;28;20727;-42
2022/12/06 07:28:29;;;;;;;0.55;0.40;;;;;;;;;;4127898;28;20057;-42
2022/12/06 07:30:30;;;;;;;2.38;0.47;;;;;;;;;;4100956;28;20181;-42
2022/12/06 07:32:35;;;;;;;0.70;0.40;;;;;;;;;;4105435;28;20455;-41
2022/12/06 07:34:37;;;;;;;1.55;0.57;;;;;;;;;;4110379;28;20193;-43
2022/12/06 07:36:39;;;;;;;0.65;0.52;;;;;;;;;;4144199;28;20166;-44
2022/12/06 07:38:41;;;;;;;3.00;0.52;;;;;;;;;;4131447;28;20452;-44
2022/12/06 07:40:42;;;;;;;1.15;0.50;;;;;;;;;;4126889;28;20196;-44
2022/12/06 07:45:06;;;;;;;;;;;;;;;;;;4134290;28;20449;-44
2022/12/06 07:47:07;;;;;;;0.52;0.52;;;;;;;;;;4118758;28;19936;-42
2022/12/06 07:49:09;;;;;;;0.40;0.40;;;;;;;;;;4137714;28;20054;-44
2022/12/06 07:51:10;;;;;;;0.40;0.38;;;;;;;;;;4125398;28;20053;-42
2022/12/06 07:53:11;;;;;;;1.35;0.82;;;;;;;;;;4123629;28;20101;-44
2022/12/06 07:55:15;;;;;;;0.65;0.50;;;;;;;;;;4122150;28;20057;-44
2022/12/06 07:57:16;;;;;;;2.20;0.60;;;;;;;;;;4127886;28;20058;-41
2022/12/06 07:59:17;;;;;;;1.83;0.65;;;;;;;;;;4116434;28;20113;-42
2022/12/06 08:01:19;;;;;;;2.00;0.50;;;;;;;;;;4100542;28;20064;-41
2022/12/06 08:03:21;;;;;;;1.15;0.60;;;;;;;;;;4107630;28;20149;-42
2022/12/06 08:05:22;;;;;;;1.05;0.70;;;;;;;;;;4100526;28;20062;-41
2022/12/06 08:07:24;;;;;;;1.08;0.60;;;;;;;;;;4111547;28;20182;-40
2022/12/06 08:09:26;;;;;;;1.70;0.60;;;;;;;;;;4115740;28;20092;-39
2022/12/06 08:11:27;;;;;;;0.82;0.50;;;;;;;;;;4116792;28;20058;-40
2022/12/06 08:13:29;;;;;;;1.35;0.60;;;;;;;;;;4114351;28;20183;-41
2022/12/06 08:15:30;;;;;;;3.20;0.80;;;;;;;;;;4118982;28;20096;-41
2022/12/06 08:17:31;;;;;;;2.92;0.65;;;;;;;;;;4118841;28;20105;-39
2022/12/06 08:19:33;;;;;;;0.57;0.50;;;;;;;;;;4112272;28;20097;-45
2022/12/06 08:21:34;;;;;;;0.43;0.43;;;;;;;;;;4127645;28;20054;-41
2022/12/06 08:23:36;;;;;;;0.63;0.50;;;;;;;;;;4117484;28;20057;-42
2022/12/06 08:25:37;;;;;;;1.17;0.75;;;;;;;;;;4123732;28;20061;-42
2022/12/06 08:27:38;;;;;;;1.08;0.80;;;;;;;;;;4109168;28;20676;-42
2022/12/06 08:29:40;;;;;;;1.15;0.40;;;;;;;;;;4119949;28;20465;-40
2022/12/06 08:31:42;;;;;;;2.13;0.73;;;;;;;;;;4115549;28;20084;-42
2022/12/06 08:33:44;;;;;;;0.50;0.50;;;;;;;;;;4108014;28;20081;-42
2022/12/06 08:35:49;;;;;;;1.30;0.52;;;;;;;;;;4122779;28;20517;-42
2022/12/06 08:37:51;;;;;;;0.50;0.40;;;;;;;;;;4125904;28;20101;-42
2022/12/06 08:39:52;;;;;;;0.40;0.38;;;;;;;;;;4120851;28;20058;-43
2022/12/06 08:42:02;;;;;;;2.95;0.60;;;;;;;;;;4125643;28;20058;-40
2022/12/06 08:44:04;;;;;;;2.10;0.80;;;;;;;;;;4126916;28;20065;-41
2022/12/06 08:46:05;;;;;;;0.70;0.50;;;;;;;;;;4118413;28;20058;-41
2022/12/06 08:48:06;;;;;;;0.70;0.52;;;;;;;;;;4121683;28;21278;-41
2022/12/06 08:50:08;;;;;;;1.20;0.68;;;;;;;;;;4123378;28;20066;-40
2022/12/06 08:52:09;;;;;;;0.80;0.43;;;;;;;;;;4104826;28;20065;-41
2022/12/06 08:54:13;;;;;;;1.75;0.88;;;;;;;;;;4112852;28;20561;-41
2022/12/06 08:56:14;;;;;;;0.40;0.40;;;;;;;;;;4136791;28;20123;-40
2022/12/06 08:58:16;;;;;;;0.55;0.50;;;;;;;;;;4121976;28;20140;-41
2022/12/06 09:00:18;;;;;;;1.35;0.60;;;;;;;;;;4109709;28;20062;-42
2022/12/06 09:02:19;;;;;;;2.63;0.57;;;;;;;;;;4114108;28;20106;-42
2022/12/06 09:04:20;;;;;;;1.13;0.70;;;;;;;;;;4116576;28;20584;-46
2022/12/06 09:06:21;;;;;;;1.27;0.73;;;;;;;;;;4114462;28;21661;-47
2022/12/06 09:08:23;;;;;;;2.75;0.75;;;;;;;;;;4121081;28;20054;-44
2022/12/06 09:10:24;;;;;;;0.95;0.45;;;;;;;;;;4121710;28;20418;-43
2022/12/06 09:12:26;;;;;;;1.15;0.80;;;;;;;;;;4105183;28;20493;-42
2022/12/06 09:14:27;;;;;;;2.95;0.90;;;;;;;;;;4103879;28;20108;-44
2022/12/06 09:16:28;;;;;;;1.88;0.90;;;;;;;;;;4100435;28;20066;-44
2022/12/06 09:18:29;;;;;;;0.82;0.60;;;;;;;;;;4104444;28;20700;-44
2022/12/06 09:20:30;;;;;;;1.02;0.65;;;;;;;;;;4116141;28;21477;-43
2022/12/06 09:22:31;;;;;;;1.08;0.70;;;;;;;;;;4112962;28;20058;-43
2022/12/06 09:24:33;;;;;;;1.90;0.80;;;;;;;;;;4099924;28;20055;-41
2022/12/06 09:26:34;;;;;;;1.40;0.77;;;;;;;;;;4109576;28;20073;-42
2022/12/06 09:28:38;;;;;;;2.28;0.80;;;;;;;;;;4103449;28;20117;-41
2022/12/06 09:30:40;;;;;;;1.75;0.88;;;;;;;;;;4108778;28;20070;-40
2022/12/06 09:32:41;;;;;;;1.15;0.98;;;;;;;;;;4102257;28;20513;-41
2022/12/06 09:34:42;;;;;;;3.47;1.00;;;;;;;;;;4114242;28;20584;-42
2022/12/06 09:36:57;;;;;;;0.63;0.55;;;;;;;;;;4111942;28;22031;-41
2022/12/06 09:39:35;;;;;;;3.10;0.90;;;;;;;;;;4111604;28;20237;-42
2022/12/06 09:41:51;;;;;;;1.27;0.82;;;;;;;;;;4118478;28;20062;-42
2022/12/06 09:44:05;;;;;;;0.95;0.60;;;;;;;;;;4107848;28;20050;-41
2022/12/06 09:46:43;;;;;;;1.70;0.70;;;;;;;;;;4104156;28;20073;-40
2022/12/06 09:49:03;;;;;;;1.95;0.90;;;;;;;;;;4119812;28;20074;-43
2022/12/06 09:51:23;;;;;;;3.63;1.00;;;;;;;;;;4104911;28;20054;-43
2022/12/06 09:53:30;;;;;;;0.75;0.65;;;;;;;;;;4106636;28;20059;-43
2022/12/06 09:55:55;;;;;;;2.50;0.80;;;;;;;;;;4100717;28;20054;-42
2022/12/06 09:58:11;;;;;;;3.00;0.75;;;;;;;;;;4098647;28;20058;-42
2022/12/06 10:00:15;;;;;;;2.40;0.70;;;;;;;;;;4097481;28;20072;-41
2022/12/06 10:02:21;;;;;;;2.70;0.77;;;;;;;;;;4093848;28;21817;-43
2022/12/06 10:04:22;;;;;;;1.02;0.52;;;;;;;;;;4110929;28;20373;-41
2022/12/06 10:06:30;;;;;;;2.35;0.80;;;;;;;;;;4099353;28;20062;-42
2022/12/06 10:08:40;;;;;;;1.73;0.80;;;;;;;;;;4112093;28;21168;-43
2022/12/06 10:10:48;;;;;;;1.50;0.68;;;;;;;;;;4112178;28;20484;-42
2022/12/06 10:13:12;;;;;;;1.23;0.63;;;;;;;;;;4125595;28;20719;-41
2022/12/06 10:15:32;;;;;;;2.00;0.80;;;;;;;;;;4098087;28;20057;-42
2022/12/06 10:18:00;;;;;;;1.27;0.60;;;;;;;;;;4113610;28;20053;-42
2022/12/06 10:20:21;;;;;;;0.60;0.55;;;;;;;;;;4116732;28;20060;-43
2022/12/06 10:22:49;;;;;;;1.20;0.70;;;;;;;;;;4126363;28;20050;-43
2022/12/06 10:25:04;;;;;;;2.05;0.80;;;;;;;;;;4113289;28;20050;-42
2022/12/06 10:27:11;;;;;;;2.17;0.43;;;;;;;;;;4133076;28;20116;-42
2022/12/06 10:29:30;;;;;;;0.77;0.60;;;;;;;;;;4107472;28;20549;-43
2022/12/06 10:32:03;;;;;;;0.75;0.57;;;;;;;;;;4106335;28;20735;-40
2022/12/06 10:34:19;;;;;;;3.15;0.65;;;;;;;;;;4098290;28;20066;-40
2022/12/06 10:36:48;;;;;;;0.75;0.55;;;;;;;;;;4112673;28;20062;-40
2022/12/06 10:38:53;;;;;;;2.85;0.60;;;;;;;;;;4116415;28;20103;-39
2022/12/06 10:40:57;;;;;;;0.70;0.50;;;;;;;;;;4121836;28;20058;-38
2022/12/06 10:43:31;;;;;;;1.35;0.60;;;;;;;;;;4131926;28;20058;-40
2022/12/06 10:48:46;;;;;;;2.20;0.60;;;;;;;;;;4122385;28;20461;-42
2022/12/06 10:50:50;;;;;;;1.20;0.60;;;;;;;;;;4119907;28;20057;-41
2022/12/06 10:53:00;;;;;;;0.90;0.60;;;;;;;;;;4120550;28;20054;-41
2022/12/06 10:55:01;;;;;;;0.47;0.38;;;;;;;;;;4101789;28;20153;-42
2022/12/06 10:57:09;;;;;;;2.08;0.68;;;;;;;;;;4121281;28;20104;-41
2022/12/06 10:59:26;;;;;;;2.97;0.68;;;;;;;;;;4115829;28;20556;-41
2022/12/06 11:01:31;;;;;;;1.05;0.80;;;;;;;;;;4102452;28;20581;-42
2022/12/06 11:03:38;;;;;;;0.80;0.50;;;;;;;;;;4100230;28;20066;-42
2022/12/06 11:05:53;;;;;;;2.85;1.10;;;;;;;;;;4115019;28;20062;-42
2022/12/06 11:08:16;;;;;;;1.17;0.50;;;;;;;;;;4087108;28;20800;-42
2022/12/06 11:10:24;;;;;;;1.38;0.85;;;;;;;;;;4104421;28;21028;-41
2022/12/06 11:12:31;;;;;;;0.90;0.68;;;;;;;;;;4130989;28;20121;-41
2022/12/06 11:14:40;;;;;;;1.65;0.80;;;;;;;;;;4135487;28;20054;-41
2022/12/06 11:17:20;;;;;;;1.30;0.50;;;;;;;;;;4113520;28;20574;-41
2022/12/06 11:19:43;;;;;;;0.80;0.50;;;;;;;;;;4121700;28;20079;-43
2022/12/06 11:21:52;;;;;;;1.15;0.60;;;;;;;;;;4117857;28;20116;-41
2022/12/06 11:24:14;;;;;;;1.10;0.70;;;;;;;;;;4130867;28;20062;-40
2022/12/06 11:26:34;;;;;;;1.13;0.50;;;;;;;;;;4129907;28;20054;-41
2022/12/06 11:28:40;;;;;;;;;;;;;;;;;;4138863;28;20050;-44
2022/12/06 11:30:42;;;;;;;0.80;0.52;;;;;;;;;;4136065;28;19948;-42
2022/12/06 11:32:44;;;;;;;0.73;0.30;;;;;;;;;;4133699;28;20356;-41
2022/12/06 11:34:54;;;;;;;0.82;0.60;;;;;;;;;;4101624;28;20093;-41
2022/12/06 11:36:56;;;;;;;1.50;0.63;;;;;;;;;;4113075;28;20061;-42
2022/12/06 11:38:58;;;;;;;1.45;0.80;;;;;;;;;;4136635;28;20121;-40
2022/12/06 11:40:59;;;;;;;0.40;0.40;;;;;;;;;;4133715;28;20654;-40
2022/12/06 11:43:05;;;;;;;1.15;0.73;;;;;;;;;;4132202;28;20077;-40
2022/12/06 11:45:14;;;;;;;1.00;0.60;;;;;;;;;;4136788;28;20269;-40
2022/12/06 11:47:18;;;;;;;0.82;0.70;;;;;;;;;;4151940;28;20510;-39
2022/12/06 11:49:39;;;;;;;1.25;0.55;;;;;;;;;;4111993;28;20061;-39
2022/12/06 11:51:40;;;;;;;1.20;0.80;;;;;;;;;;4119212;28;20481;-41
2022/12/06 11:53:56;;;;;;;2.15;0.70;;;;;;;;;;4129222;28;20069;-41
2022/12/06 11:56:07;;;;;;;0.60;0.60;;;;;;;;;;4122118;28;20081;-43
2022/12/06 11:58:19;;;;;;;0.63;0.57;;;;;;;;;;4109167;28;20579;-42
2022/12/06 12:00:22;;;;;;;0.90;0.68;;;;;;;;;;4100675;28;20170;-42
2022/12/06 12:02:30;;;;;;;1.67;0.80;;;;;;;;;;4135873;28;20559;-41
2022/12/06 12:04:40;;;;;;;0.88;0.68;;;;;;;;;;4118070;28;20065;-41
2022/12/06 12:06:41;;;;;;;1.10;0.53;;;;;;;;;;4124480;28;20066;-41
2022/12/06 12:08:57;;;;;;;1.23;0.60;;;;;;;;;;4122755;28;20121;-42
2022/12/06 12:11:00;;;;;;;0.45;0.40;;;;;;;;;;4102788;28;20787;-40
2022/12/06 12:15:49;;;;;;;1.08;0.88;;;;;;;;;;4109035;28;20061;-40
2022/12/06 12:17:52;;;;;;;0.98;0.77;;;;;;;;;;4079411;28;20129;-41
2022/12/06 12:19:59;;;;;;;0.77;0.60;;;;;;;;;;4105838;28;20066;-39
2022/12/06 12:22:13;;;;;;;1.08;0.70;;;;;;;;;;4104049;28;20058;-39
2022/12/06 12:24:41;;;;;;;1.67;0.50;;;;;;;;;;4084463;28;20059;-41
2022/12/06 12:26:43;;;;;;;0.98;0.55;;;;;;;;;;4098032;28;20109;-41
2022/12/06 12:29:01;;;;;;;0.98;0.65;;;;;;;;;;4102800;28;20055;-40
2022/12/06 12:31:21;;;;;;;1.23;0.73;;;;;;;;;;4070067;28;20067;-43
2022/12/06 12:33:27;;;;;;;1.08;0.73;;;;;;;;;;4072775;28;20063;-41
2022/12/06 12:35:28;;;;;;;1.17;0.75;;;;;;;;;;4100914;28;20061;-41
2022/12/06 12:37:29;;;;;;;0.45;0.40;;;;;;;;;;4098557;28;20770;-43
2022/12/06 12:39:38;;;;;;;1.33;0.70;;;;;;;;;;4092300;28;20117;-42
2022/12/06 12:41:41;;;;;;;0.75;0.70;;;;;;;;;;4103333;28;20134;-38
2022/12/06 12:43:51;;;;;;;0.82;0.80;;;;;;;;;;4122594;28;20531;-40
2022/12/06 12:46:03;;;;;;;2.63;0.80;;;;;;;;;;4087821;28;20066;-40
2022/12/06 12:48:23;;;;;;;1.88;0.90;;;;;;;;;;4107451;28;20050;-39
2022/12/06 12:50:24;;;;;;;1.13;0.60;;;;;;;;;;4099323;28;20057;-40
2022/12/06 12:52:34;;;;;;;2.28;0.50;;;;;;;;;;4111748;28;20144;-40
2022/12/06 12:54:36;;;;;;;0.85;0.70;;;;;;;;;;4106752;28;20422;-39
2022/12/06 12:56:38;;;;;;;1.13;0.68;;;;;;;;;;4109428;28;20419;-40
2022/12/06 12:58:40;;;;;;;1.67;0.60;;;;;;;;;;4103628;28;20054;-40
2022/12/06 13:00:44;;;;;;;1.05;0.70;;;;;;;;;;4123794;28;21382;-40
2022/12/06 13:02:55;;;;;;;1.33;0.60;;;;;;;;;;4107331;28;20062;-41